sensor_id;sensor_type;location;lat;lon;timestamp;pressure;altitude;pressure_sealevel;temperature;humidity
63321;BME280;49449;48.800;9.534;2024-03-29T00:00:44;96967.91;;;6.32;36.94
63321;BME280;49449;48.800;9.534;2024-03-29T00:03:11;96972.75;;;6.40;36.29
63321;BME280;49449;48.800;9.534;2024-03-29T00:05:37;96973.41;;;6.47;35.72
63321;BME280;49449;48.800;9.534;2024-03-29T00:08:04;96963.22;;;6.34;36.08
63321;BME280;49449;48.800;9.534;2024-03-29T00:10:30;96955.28;;;6.45;35.80
63321;BME280;49449;48.800;9.534;2024-03-29T00:12:56;96960.84;;;6.49;35.89
63321;BME280;49449;48.800;9.534;2024-03-29T00:15:22;96944.13;;;6.55;36.00
63321;BME280;49449;48.800;9.534;2024-03-29T00:17:48;96937.06;;;6.56;36.37
63321;BME280;49449;48.800;9.534;2024-03-29T00:20:16;96922.19;;;6.61;36.23
63321;BME280;49449;48.800;9.534;2024-03-29T00:22:42;96916.75;;;6.68;36.44
63321;BME280;49449;48.800;9.534;2024-03-29T00:25:08;96908.91;;;6.68;36.80
63321;BME280;49449;48.800;9.534;2024-03-29T00:27:34;96901.56;;;6.70;36.98
63321;BME280;49449;48.800;9.534;2024-03-29T00:30:00;96892.41;;;6.73;35.97
63321;BME280;49449;48.800;9.534;2024-03-29T00:32:26;96891.13;;;6.75;36.08
63321;BME280;49449;48.800;9.534;2024-03-29T00:34:52;96884.84;;;6.76;36.17
63321;BME280;49449;48.800;9.534;2024-03-29T00:37:20;96885.16;;;6.80;36.74
63321;BME280;49449;48.800;9.534;2024-03-29T00:39:46;96877.56;;;6.83;36.96
63321;BME280;49449;48.800;9.534;2024-03-29T00:42:12;96850.59;;;6.88;36.40
63321;BME280;49449;48.800;9.534;2024-03-29T00:44:38;96846.72;;;6.91;37.93
63321;BME280;49449;48.800;9.534;2024-03-29T00:47:04;96854.38;;;6.97;36.13
63321;BME280;49449;48.800;9.534;2024-03-29T00:49:30;96839.19;;;6.99;37.01
63321;BME280;49449;48.800;9.534;2024-03-29T00:51:56;96834.25;;;7.03;36.87
63321;BME280;49449;48.800;9.534;2024-03-29T00:54:24;96829.53;;;7.05;36.80
63321;BME280;49449;48.800;9.534;2024-03-29T00:56:50;96831.97;;;7.12;35.97
63321;BME280;49449;48.800;9.534;2024-03-29T00:59:16;96836.41;;;7.11;35.86
63321;BME280;49449;48.800;9.534;2024-03-29T01:01:42;96838.81;;;7.13;36.07
63321;BME280;49449;48.800;9.534;2024-03-29T01:04:08;96844.13;;;7.18;35.97
63321;BME280;49449;48.800;9.534;2024-03-29T01:06:34;96840.47;;;7.19;35.39
63321;BME280;49449;48.800;9.534;2024-03-29T01:09:00;96838.88;;;7.18;35.78
63321;BME280;49449;48.800;9.534;2024-03-29T01:11:27;96830.25;;;7.22;35.22
63321;BME280;49449;48.800;9.534;2024-03-29T01:13:53;96828.41;;;7.23;35.24
63321;BME280;49449;48.800;9.534;2024-03-29T01:16:19;96832.94;;;7.06;34.76
63321;BME280;49449;48.800;9.534;2024-03-29T01:18:45;96835.81;;;7.04;35.01
63321;BME280;49449;48.800;9.534;2024-03-29T01:21:11;96825.69;;;7.13;35.28
63321;BME280;49449;48.800;9.534;2024-03-29T01:23:37;96815.22;;;7.18;35.70
63321;BME280;49449;48.800;9.534;2024-03-29T01:26:04;96815.53;;;7.21;35.63
63321;BME280;49449;48.800;9.534;2024-03-29T01:28:32;96805.03;;;7.21;35.77
63321;BME280;49449;48.800;9.534;2024-03-29T01:30:58;96819.47;;;7.24;36.53
63321;BME280;49449;48.800;9.534;2024-03-29T01:33:24;96823.47;;;7.27;35.84
63321;BME280;49449;48.800;9.534;2024-03-29T01:35:50;96821.19;;;7.35;35.64
63321;BME280;49449;48.800;9.534;2024-03-29T01:38:16;96824.84;;;7.34;34.91
63321;BME280;49449;48.800;9.534;2024-03-29T01:40:42;96821.72;;;7.37;35.91
63321;BME280;49449;48.800;9.534;2024-03-29T01:43:08;96811.25;;;7.43;35.67
63321;BME280;49449;48.800;9.534;2024-03-29T01:45:38;96808.97;;;7.51;35.10
63321;BME280;49449;48.800;9.534;2024-03-29T01:48:06;96813.97;;;7.53;34.46
63321;BME280;49449;48.800;9.534;2024-03-29T01:50:33;96808.38;;;7.44;34.76
63321;BME280;49449;48.800;9.534;2024-03-29T01:53:01;96804.41;;;7.41;35.75
63321;BME280;49449;48.800;9.534;2024-03-29T01:55:28;96807.09;;;7.47;35.71
63321;BME280;49449;48.800;9.534;2024-03-29T01:57:56;96811.13;;;7.54;35.41
63321;BME280;49449;48.800;9.534;2024-03-29T02:00:24;96807.50;;;7.60;35.44
63321;BME280;49449;48.800;9.534;2024-03-29T02:02:54;96802.25;;;7.60;34.96
63321;BME280;49449;48.800;9.534;2024-03-29T02:05:21;96809.88;;;7.62;35.36
63321;BME280;49449;48.800;9.534;2024-03-29T02:07:49;96813.84;;;7.65;35.40
63321;BME280;49449;48.800;9.534;2024-03-29T02:10:16;96809.88;;;7.62;35.03
63321;BME280;49449;48.800;9.534;2024-03-29T02:12:43;96798.03;;;7.59;35.21
63321;BME280;49449;48.800;9.534;2024-03-29T02:15:14;96805.84;;;7.54;36.11
63321;BME280;49449;48.800;9.534;2024-03-29T02:17:42;96795.59;;;7.53;38.11
63321;BME280;49449;48.800;9.534;2024-03-29T02:20:11;96807.44;;;7.55;35.41
63321;BME280;49449;48.800;9.534;2024-03-29T02:22:41;96797.56;;;7.68;36.22
63321;BME280;49449;48.800;9.534;2024-03-29T02:25:14;96796.81;;;7.72;35.16
63321;BME280;49449;48.800;9.534;2024-03-29T02:27:41;96801.03;;;7.73;34.74
63321;BME280;49449;48.800;9.534;2024-03-29T02:30:13;96790.56;;;7.78;34.88
63321;BME280;49449;48.800;9.534;2024-03-29T02:32:40;96785.97;;;7.64;32.33
63321;BME280;49449;48.800;9.534;2024-03-29T02:35:07;96780.56;;;7.81;32.30
63321;BME280;49449;48.800;9.534;2024-03-29T02:37:35;96787.25;;;7.93;31.89
63321;BME280;49449;48.800;9.534;2024-03-29T02:40:02;96788.81;;;7.94;30.94
63321;BME280;49449;48.800;9.534;2024-03-29T02:42:30;96780.47;;;8.03;31.82
63321;BME280;49449;48.800;9.534;2024-03-29T02:44:57;96788.66;;;8.06;31.82
63321;BME280;49449;48.800;9.534;2024-03-29T02:47:24;96793.16;;;8.11;30.04
63321;BME280;49449;48.800;9.534;2024-03-29T02:49:50;96776.84;;;8.14;31.39
63321;BME280;49449;48.800;9.534;2024-03-29T02:52:17;96754.97;;;8.08;29.92
63321;BME280;49449;48.800;9.534;2024-03-29T02:54:43;96765.69;;;7.91;28.99
63321;BME280;49449;48.800;9.534;2024-03-29T02:57:10;96756.06;;;8.07;29.45
63321;BME280;49449;48.800;9.534;2024-03-29T02:59:39;96760.31;;;8.19;29.12
63321;BME280;49449;48.800;9.534;2024-03-29T03:02:06;96762.19;;;8.23;30.41
63321;BME280;49449;48.800;9.534;2024-03-29T03:04:32;96766.16;;;8.31;30.21
63321;BME280;49449;48.800;9.534;2024-03-29T03:06:58;96776.19;;;8.34;29.57
63321;BME280;49449;48.800;9.534;2024-03-29T03:09:44;96780.78;;;8.11;28.54
63321;BME280;49449;48.800;9.534;2024-03-29T03:12:29;96789.16;;;8.03;28.54
63321;BME280;49449;48.800;9.534;2024-03-29T03:14:58;96788.06;;;7.99;28.62
63321;BME280;49449;48.800;9.534;2024-03-29T03:17:25;96790.47;;;8.01;28.85
63321;BME280;49449;48.800;9.534;2024-03-29T03:19:52;96786.38;;;8.20;28.93
63321;BME280;49449;48.800;9.534;2024-03-29T03:22:18;96785.75;;;8.08;28.66
63321;BME280;49449;48.800;9.534;2024-03-29T03:24:45;96787.31;;;8.04;28.65
63321;BME280;49449;48.800;9.534;2024-03-29T03:27:11;96790.53;;;8.11;29.49
63321;BME280;49449;48.800;9.534;2024-03-29T03:29:39;96780.03;;;8.21;30.19
63321;BME280;49449;48.800;9.534;2024-03-29T03:32:07;96793.22;;;8.26;31.58
63321;BME280;49449;48.800;9.534;2024-03-29T03:34:33;96793.53;;;8.35;30.85
63321;BME280;49449;48.800;9.534;2024-03-29T03:36:59;96795.63;;;8.33;30.71
63321;BME280;49449;48.800;9.534;2024-03-29T03:39:26;96778.31;;;8.37;30.30
63321;BME280;49449;48.800;9.534;2024-03-29T03:41:52;96788.06;;;8.42;31.25
63321;BME280;49449;48.800;9.534;2024-03-29T03:44:19;96791.75;;;8.46;30.98
63321;BME280;49449;48.800;9.534;2024-03-29T03:46:47;96792.81;;;8.45;30.63
63321;BME280;49449;48.800;9.534;2024-03-29T03:49:15;96800.72;;;8.50;30.94
63321;BME280;49449;48.800;9.534;2024-03-29T03:51:41;96807.31;;;8.52;30.45
63321;BME280;49449;48.800;9.534;2024-03-29T03:54:08;96804.41;;;8.49;30.04
63321;BME280;49449;48.800;9.534;2024-03-29T03:56:34;96794.94;;;8.48;29.76
63321;BME280;49449;48.800;9.534;2024-03-29T03:59:01;96804.69;;;8.52;29.66
63321;BME280;49449;48.800;9.534;2024-03-29T04:01:27;96799.16;;;8.54;29.00
63321;BME280;49449;48.800;9.534;2024-03-29T04:03:54;96829.19;;;8.53;30.32
63321;BME280;49449;48.800;9.534;2024-03-29T04:06:21;96829.72;;;8.55;30.97
63321;BME280;49449;48.800;9.534;2024-03-29T04:08:48;96819.44;;;8.53;31.00
63321;BME280;49449;48.800;9.534;2024-03-29T04:11:14;96807.06;;;8.54;30.93
63321;BME280;49449;48.800;9.534;2024-03-29T04:13:42;96801.03;;;8.59;30.35
63321;BME280;49449;48.800;9.534;2024-03-29T04:16:08;96794.44;;;8.61;30.37
63321;BME280;49449;48.800;9.534;2024-03-29T04:18:35;96804.44;;;8.59;30.75
63321;BME280;49449;48.800;9.534;2024-03-29T04:21:02;96803.94;;;8.62;30.59
63321;BME280;49449;48.800;9.534;2024-03-29T04:23:31;96801.84;;;8.64;30.22
63321;BME280;49449;48.800;9.534;2024-03-29T04:25:58;96786.59;;;8.66;30.33
63321;BME280;49449;48.800;9.534;2024-03-29T04:28:26;96778.41;;;8.63;30.24
63321;BME280;49449;48.800;9.534;2024-03-29T04:30:52;96765.47;;;8.56;30.20
63321;BME280;49449;48.800;9.534;2024-03-29T04:33:19;96748.34;;;8.48;30.53
63321;BME280;49449;48.800;9.534;2024-03-29T04:35:55;96771.47;;;8.41;30.73
63321;BME280;49449;48.800;9.534;2024-03-29T04:38:22;96761.44;;;8.33;30.79
63321;BME280;49449;48.800;9.534;2024-03-29T04:40:52;96770.69;;;8.41;31.77
63321;BME280;49449;48.800;9.534;2024-03-29T04:43:21;96792.53;;;8.41;31.76
63321;BME280;49449;48.800;9.534;2024-03-29T04:45:48;96795.38;;;8.34;31.37
63321;BME280;49449;48.800;9.534;2024-03-29T04:48:16;96799.69;;;8.08;30.83
63321;BME280;49449;48.800;9.534;2024-03-29T04:50:42;96797.13;;;8.19;31.55
63321;BME280;49449;48.800;9.534;2024-03-29T04:53:09;96792.22;;;8.32;31.46
63321;BME280;49449;48.800;9.534;2024-03-29T04:55:36;96850.94;;;8.38;32.60
63321;BME280;49449;48.800;9.534;2024-03-29T04:58:06;96843.31;;;8.42;31.87
63321;BME280;49449;48.800;9.534;2024-03-29T05:00:32;96843.38;;;8.52;30.49
63321;BME280;49449;48.800;9.534;2024-03-29T05:02:59;96814.66;;;8.45;30.15
63321;BME280;49449;48.800;9.534;2024-03-29T05:05:26;96807.28;;;8.47;31.37
63321;BME280;49449;48.800;9.534;2024-03-29T05:07:53;96817.31;;;8.50;33.40
63321;BME280;49449;48.800;9.534;2024-03-29T05:10:20;96819.66;;;8.47;33.01
63321;BME280;49449;48.800;9.534;2024-03-29T05:12:48;96807.53;;;8.46;32.77
63321;BME280;49449;48.800;9.534;2024-03-29T05:15:16;96791.53;;;8.52;31.40
63321;BME280;49449;48.800;9.534;2024-03-29T05:17:43;96752.06;;;8.58;30.47
63321;BME280;49449;48.800;9.534;2024-03-29T05:20:10;96749.09;;;8.44;29.55
63321;BME280;49449;48.800;9.534;2024-03-29T05:22:37;96756.00;;;8.50;29.38
63321;BME280;49449;48.800;9.534;2024-03-29T05:25:04;96755.34;;;8.27;29.29
63321;BME280;49449;48.800;9.534;2024-03-29T05:27:33;96759.88;;;8.32;28.99
63321;BME280;49449;48.800;9.534;2024-03-29T05:30:00;96766.13;;;8.26;28.94
63321;BME280;49449;48.800;9.534;2024-03-29T05:32:28;96754.91;;;8.41;28.94
63321;BME280;49449;48.800;9.534;2024-03-29T05:34:55;96762.31;;;8.54;29.09
63321;BME280;49449;48.800;9.534;2024-03-29T05:37:22;96763.91;;;8.55;29.26
63321;BME280;49449;48.800;9.534;2024-03-29T05:39:51;96759.19;;;8.62;29.52
63321;BME280;49449;48.800;9.534;2024-03-29T05:42:24;96764.50;;;8.72;29.38
63321;BME280;49449;48.800;9.534;2024-03-29T05:44:52;96778.75;;;8.77;29.23
63321;BME280;49449;48.800;9.534;2024-03-29T05:47:19;96772.19;;;8.84;29.67
63321;BME280;49449;48.800;9.534;2024-03-29T05:49:48;96756.94;;;8.91;29.47
63321;BME280;49449;48.800;9.534;2024-03-29T05:52:15;96763.78;;;8.92;29.86
63321;BME280;49449;48.800;9.534;2024-03-29T05:54:42;96761.69;;;8.95;29.88
63321;BME280;49449;48.800;9.534;2024-03-29T05:57:09;96758.28;;;8.99;30.25
63321;BME280;49449;48.800;9.534;2024-03-29T05:59:37;96772.75;;;9.02;29.59
63321;BME280;49449;48.800;9.534;2024-03-29T06:02:06;96772.75;;;8.97;29.04
63321;BME280;49449;48.800;9.534;2024-03-29T06:04:33;96774.84;;;8.95;29.31
63321;BME280;49449;48.800;9.534;2024-03-29T06:07:03;96770.63;;;8.99;29.18
63321;BME280;49449;48.800;9.534;2024-03-29T06:09:31;96777.00;;;9.03;29.39
63321;BME280;49449;48.800;9.534;2024-03-29T06:11:59;96790.19;;;9.08;29.69
63321;BME280;49449;48.800;9.534;2024-03-29T06:14:26;96793.59;;;9.14;28.89
63321;BME280;49449;48.800;9.534;2024-03-29T06:17:10;96799.66;;;9.14;28.96
63321;BME280;49449;48.800;9.534;2024-03-29T06:19:50;96794.91;;;9.06;29.33
63321;BME280;49449;48.800;9.534;2024-03-29T06:22:18;96792.53;;;9.15;30.31
63321;BME280;49449;48.800;9.534;2024-03-29T06:24:45;96786.25;;;9.26;30.56
63321;BME280;49449;48.800;9.534;2024-03-29T06:27:12;96785.47;;;9.36;30.67
63321;BME280;49449;48.800;9.534;2024-03-29T06:29:41;96786.00;;;9.43;31.15
63321;BME280;49449;48.800;9.534;2024-03-29T06:32:08;96783.34;;;9.48;30.71
63321;BME280;49449;48.800;9.534;2024-03-29T06:34:35;96787.31;;;9.45;29.87
63321;BME280;49449;48.800;9.534;2024-03-29T06:37:02;96791.28;;;9.48;29.69
63321;BME280;49449;48.800;9.534;2024-03-29T06:39:31;96779.13;;;9.26;29.21
63321;BME280;49449;48.800;9.534;2024-03-29T06:41:58;96785.75;;;9.34;30.96
63321;BME280;49449;48.800;9.534;2024-03-29T06:44:25;96782.06;;;9.45;31.13
63321;BME280;49449;48.800;9.534;2024-03-29T06:46:51;96791.81;;;9.50;30.92
63321;BME280;49449;48.800;9.534;2024-03-29T06:49:19;96779.94;;;9.58;30.46
63321;BME280;49449;48.800;9.534;2024-03-29T06:51:46;96774.69;;;9.63;30.14
63321;BME280;49449;48.800;9.534;2024-03-29T06:54:13;96776.25;;;9.64;30.16
63321;BME280;49449;48.800;9.534;2024-03-29T06:56:41;96775.47;;;9.74;30.15
63321;BME280;49449;48.800;9.534;2024-03-29T06:59:08;96775.19;;;9.80;30.06
63321;BME280;49449;48.800;9.534;2024-03-29T07:01:35;96769.16;;;9.85;29.67
63321;BME280;49449;48.800;9.534;2024-03-29T07:04:02;96768.09;;;9.91;30.26
63321;BME280;49449;48.800;9.534;2024-03-29T07:06:30;96756.22;;;9.94;29.97
63321;BME280;49449;48.800;9.534;2024-03-29T07:08:56;96760.44;;;9.90;30.11
63321;BME280;49449;48.800;9.534;2024-03-29T07:11:23;96762.56;;;9.88;29.71
63321;BME280;49449;48.800;9.534;2024-03-29T07:13:51;96768.38;;;9.84;29.36
63321;BME280;49449;48.800;9.534;2024-03-29T07:16:18;96757.03;;;9.89;29.67
63321;BME280;49449;48.800;9.534;2024-03-29T07:18:45;96752.53;;;9.95;29.83
63321;BME280;49449;48.800;9.534;2024-03-29T07:21:12;96733.03;;;9.91;29.54
63321;BME280;49449;48.800;9.534;2024-03-29T07:23:39;96727.19;;;9.89;29.55
63321;BME280;49449;48.800;9.534;2024-03-29T07:26:06;96745.66;;;9.89;29.31
63321;BME280;49449;48.800;9.534;2024-03-29T07:28:33;96750.94;;;9.83;28.78
63321;BME280;49449;48.800;9.534;2024-03-29T07:31:06;96753.56;;;9.89;28.96
63321;BME280;49449;48.800;9.534;2024-03-29T07:33:34;96760.19;;;9.96;29.16
63321;BME280;49449;48.800;9.534;2024-03-29T07:36:04;96782.06;;;9.97;29.42
63321;BME280;49449;48.800;9.534;2024-03-29T07:38:31;96786.31;;;9.93;29.46
63321;BME280;49449;48.800;9.534;2024-03-29T07:40:58;96781.28;;;10.01;30.02
63321;BME280;49449;48.800;9.534;2024-03-29T07:43:25;96781.53;;;10.05;29.76
63321;BME280;49449;48.800;9.534;2024-03-29T07:45:52;96778.91;;;10.10;31.17
63321;BME280;49449;48.800;9.534;2024-03-29T07:48:20;96793.13;;;10.09;30.99
63321;BME280;49449;48.800;9.534;2024-03-29T07:50:47;96801.31;;;10.08;32.34
63321;BME280;49449;48.800;9.534;2024-03-29T07:53:14;96815.28;;;10.08;33.27
63321;BME280;49449;48.800;9.534;2024-03-29T07:55:41;96832.19;;;10.07;33.88
63321;BME280;49449;48.800;9.534;2024-03-29T07:58:08;96842.22;;;10.05;34.60
63321;BME280;49449;48.800;9.534;2024-03-29T08:00:39;96860.16;;;9.98;35.24
63321;BME280;49449;48.800;9.534;2024-03-29T08:03:07;96886.22;;;9.74;36.13
63321;BME280;49449;48.800;9.534;2024-03-29T08:05:35;96882.75;;;9.53;36.82
63321;BME280;49449;48.800;9.534;2024-03-29T08:08:02;96889.38;;;9.71;36.50
63321;BME280;49449;48.800;9.534;2024-03-29T08:10:29;96887.28;;;9.73;36.54
63321;BME280;49449;48.800;9.534;2024-03-29T08:12:56;96903.34;;;9.61;36.60
63321;BME280;49449;48.800;9.534;2024-03-29T08:15:23;96901.78;;;9.65;36.96
63321;BME280;49449;48.800;9.534;2024-03-29T08:17:51;96897.56;;;9.74;37.21
63321;BME280;49449;48.800;9.534;2024-03-29T08:20:17;96908.38;;;9.78;35.89
63321;BME280;49449;48.800;9.534;2024-03-29T08:22:46;96911.25;;;9.71;35.59
63321;BME280;49449;48.800;9.534;2024-03-29T08:25:13;96913.63;;;9.73;35.93
63321;BME280;49449;48.800;9.534;2024-03-29T08:27:40;96903.06;;;9.67;36.54
63321;BME280;49449;48.800;9.534;2024-03-29T08:30:07;96905.44;;;9.48;37.30
63321;BME280;49449;48.800;9.534;2024-03-29T08:32:35;96910.94;;;9.37;38.83
63321;BME280;49449;48.800;9.534;2024-03-29T08:35:01;96919.41;;;9.49;40.54
63321;BME280;49449;48.800;9.534;2024-03-29T08:37:29;96921.22;;;9.43;41.26
63321;BME280;49449;48.800;9.534;2024-03-29T08:39:58;96929.94;;;9.44;41.18
63321;BME280;49449;48.800;9.534;2024-03-29T08:42:24;96927.88;;;9.61;41.17
63321;BME280;49449;48.800;9.534;2024-03-29T08:44:51;96943.97;;;9.70;41.14
63321;BME280;49449;48.800;9.534;2024-03-29T08:47:18;96950.03;;;9.76;41.23
63321;BME280;49449;48.800;9.534;2024-03-29T08:49:45;96955.88;;;9.83;41.38
63321;BME280;49449;48.800;9.534;2024-03-29T08:52:12;96955.66;;;9.90;41.92
63321;BME280;49449;48.800;9.534;2024-03-29T08:54:40;96956.97;;;9.97;41.57
63321;BME280;49449;48.800;9.534;2024-03-29T08:57:09;96953.03;;;10.00;42.03
63321;BME280;49449;48.800;9.534;2024-03-29T08:59:36;96944.84;;;10.01;41.35
63321;BME280;49449;48.800;9.534;2024-03-29T09:02:04;96928.19;;;9.96;41.35
63321;BME280;49449;48.800;9.534;2024-03-29T09:04:32;96926.13;;;10.03;41.42
63321;BME280;49449;48.800;9.534;2024-03-29T09:07:01;96914.50;;;10.09;41.68
63321;BME280;49449;48.800;9.534;2024-03-29T09:09:29;96918.44;;;10.12;41.57
63321;BME280;49449;48.800;9.534;2024-03-29T09:11:56;96922.94;;;10.16;41.84
63321;BME280;49449;48.800;9.534;2024-03-29T09:14:24;96939.31;;;10.13;42.41
63321;BME280;49449;48.800;9.534;2024-03-29T09:16:51;96943.75;;;9.82;43.71
63321;BME280;49449;48.800;9.534;2024-03-29T09:19:18;96950.84;;;9.66;42.55
63321;BME280;49449;48.800;9.534;2024-03-29T09:21:45;96950.47;;;9.37;43.55
63321;BME280;49449;48.800;9.534;2024-03-29T09:24:12;96941.84;;;9.67;42.72
63321;BME280;49449;48.800;9.534;2024-03-29T09:26:42;96925.28;;;9.77;42.38
63321;BME280;49449;48.800;9.534;2024-03-29T09:29:09;96941.88;;;9.82;42.50
63321;BME280;49449;48.800;9.534;2024-03-29T09:31:40;96954.06;;;9.89;42.13
63321;BME280;49449;48.800;9.534;2024-03-29T09:34:08;96949.03;;;9.92;41.87
63321;BME280;49449;48.800;9.534;2024-03-29T09:36:35;96954.31;;;9.92;42.44
63321;BME280;49449;48.800;9.534;2024-03-29T09:39:02;96926.63;;;9.95;42.54
63321;BME280;49449;48.800;9.534;2024-03-29T09:41:31;96944.03;;;9.96;42.14
63321;BME280;49449;48.800;9.534;2024-03-29T09:44:02;96953.03;;;10.00;42.46
63321;BME280;49449;48.800;9.534;2024-03-29T09:46:31;96963.59;;;10.00;42.49
63321;BME280;49449;48.800;9.534;2024-03-29T09:49:01;96965.72;;;10.03;42.70
63321;BME280;49449;48.800;9.534;2024-03-29T09:51:29;96933.25;;;10.08;42.60
63321;BME280;49449;48.800;9.534;2024-03-29T09:53:57;96922.94;;;10.06;42.87
63321;BME280;49449;48.800;9.534;2024-03-29T09:56:25;96927.97;;;10.08;42.70
63321;BME280;49449;48.800;9.534;2024-03-29T09:58:53;96911.09;;;10.09;42.85
63321;BME280;49449;48.800;9.534;2024-03-29T10:01:20;96919.78;;;10.09;42.98
63321;BME280;49449;48.800;9.534;2024-03-29T10:03:49;96880.97;;;10.04;43.13
63321;BME280;49449;48.800;9.534;2024-03-29T10:06:18;96870.16;;;10.01;43.59
63321;BME280;49449;48.800;9.534;2024-03-29T10:08:46;96884.44;;;10.00;43.63
63321;BME280;49449;48.800;9.534;2024-03-29T10:11:14;96865.97;;;10.05;43.85
63321;BME280;49449;48.800;9.534;2024-03-29T10:13:44;96867.53;;;10.11;44.13
63321;BME280;49449;48.800;9.534;2024-03-29T10:16:11;96875.72;;;10.15;44.03
63321;BME280;49449;48.800;9.534;2024-03-29T10:18:40;96885.75;;;10.13;44.53
63321;BME280;49449;48.800;9.534;2024-03-29T10:21:09;96874.41;;;10.12;43.95
63321;BME280;49449;48.800;9.534;2024-03-29T10:23:37;96873.84;;;10.20;44.13
63321;BME280;49449;48.800;9.534;2024-03-29T10:26:06;96877.81;;;10.28;44.12
63321;BME280;49449;48.800;9.534;2024-03-29T10:28:34;96874.91;;;10.35;44.40
63321;BME280;49449;48.800;9.534;2024-03-29T10:31:04;96867.50;;;10.42;44.39
63321;BME280;49449;48.800;9.534;2024-03-29T10:33:32;96876.22;;;10.48;43.96
63321;BME280;49449;48.800;9.534;2024-03-29T10:35:59;96870.91;;;10.58;43.91
63321;BME280;49449;48.800;9.534;2024-03-29T10:38:27;96872.47;;;10.69;43.77
63321;BME280;49449;48.800;9.534;2024-03-29T10:40:55;96877.72;;;10.79;43.71
63321;BME280;49449;48.800;9.534;2024-03-29T10:43:24;96873.75;;;10.87;43.92
63321;BME280;49449;48.800;9.534;2024-03-29T10:45:51;96884.03;;;10.89;44.04
63321;BME280;49449;48.800;9.534;2024-03-29T10:48:21;96884.81;;;10.84;43.99
63321;BME280;49449;48.800;9.534;2024-03-29T10:50:48;96879.81;;;10.83;44.24
63321;BME280;49449;48.800;9.534;2024-03-29T10:53:17;96881.41;;;10.89;43.71
63321;BME280;49449;48.800;9.534;2024-03-29T10:55:44;96879.53;;;10.94;43.55
63321;BME280;49449;48.800;9.534;2024-03-29T10:58:12;96885.91;;;10.93;44.04
63321;BME280;49449;48.800;9.534;2024-03-29T11:00:46;96887.97;;;11.02;44.52
63321;BME280;49449;48.800;9.534;2024-03-29T11:03:16;96875.00;;;11.05;43.86
63321;BME280;49449;48.800;9.534;2024-03-29T11:05:46;96869.94;;;11.14;43.48
63321;BME280;49449;48.800;9.534;2024-03-29T11:08:18;96855.16;;;11.13;43.14
63321;BME280;49449;48.800;9.534;2024-03-29T11:10:47;96855.94;;;11.13;42.61
63321;BME280;49449;48.800;9.534;2024-03-29T11:13:24;96853.53;;;11.17;42.37
63321;BME280;49449;48.800;9.534;2024-03-29T11:15:55;96850.59;;;11.24;42.27
63321;BME280;49449;48.800;9.534;2024-03-29T11:18:22;96855.34;;;11.27;42.30
63321;BME280;49449;48.800;9.534;2024-03-29T11:20:50;96856.66;;;11.24;42.06
63321;BME280;49449;48.800;9.534;2024-03-29T11:23:19;96855.09;;;11.28;41.96
63321;BME280;49449;48.800;9.534;2024-03-29T11:25:49;96850.88;;;11.22;41.88
63321;BME280;49449;48.800;9.534;2024-03-29T11:28:24;96842.66;;;11.24;41.05
63321;BME280;49449;48.800;9.534;2024-03-29T11:30:52;96842.94;;;11.22;41.44
63321;BME280;49449;48.800;9.534;2024-03-29T11:33:28;96833.63;;;11.30;40.83
63321;BME280;49449;48.800;9.534;2024-03-29T11:35:56;96841.88;;;11.23;40.15
63321;BME280;49449;48.800;9.534;2024-03-29T11:38:34;96840.88;;;11.09;40.20
63321;BME280;49449;48.800;9.534;2024-03-29T11:41:03;96832.91;;;11.19;40.20
63321;BME280;49449;48.800;9.534;2024-03-29T11:43:30;96841.47;;;11.00;40.54
63321;BME280;49449;48.800;9.534;2024-03-29T11:45:58;96843.78;;;11.12;40.80
63321;BME280;49449;48.800;9.534;2024-03-29T11:48:27;96841.59;;;11.25;40.75
63321;BME280;49449;48.800;9.534;2024-03-29T11:50:54;96829.19;;;11.25;40.98
63321;BME280;49449;48.800;9.534;2024-03-29T11:53:21;96830.94;;;11.40;41.09
63321;BME280;49449;48.800;9.534;2024-03-29T11:55:48;96832.22;;;11.48;41.26
63321;BME280;49449;48.800;9.534;2024-03-29T11:58:19;96839.88;;;11.49;41.23
63321;BME280;49449;48.800;9.534;2024-03-29T12:00:48;96834.78;;;11.58;41.31
63321;BME280;49449;48.800;9.534;2024-03-29T12:03:16;96843.16;;;11.70;41.33
63321;BME280;49449;48.800;9.534;2024-03-29T12:05:43;96852.09;;;11.80;41.18
63321;BME280;49449;48.800;9.534;2024-03-29T12:08:10;96850.25;;;11.85;41.08
63321;BME280;49449;48.800;9.534;2024-03-29T12:10:40;96855.19;;;11.97;41.16
63321;BME280;49449;48.800;9.534;2024-03-29T12:13:08;96850.28;;;12.09;40.80
63321;BME280;49449;48.800;9.534;2024-03-29T12:15:35;96856.31;;;12.20;40.49
63321;BME280;49449;48.800;9.534;2024-03-29T12:18:05;96858.09;;;12.25;40.80
63321;BME280;49449;48.800;9.534;2024-03-29T12:20:32;96848.53;;;12.29;40.23
63321;BME280;49449;48.800;9.534;2024-03-29T12:23:00;96863.22;;;12.45;40.16
63321;BME280;49449;48.800;9.534;2024-03-29T12:25:27;96859.47;;;12.46;39.93
63321;BME280;49449;48.800;9.534;2024-03-29T12:27:58;96860.50;;;12.50;39.94
63321;BME280;49449;48.800;9.534;2024-03-29T12:30:26;96849.47;;;12.43;39.87
63321;BME280;49449;48.800;9.534;2024-03-29T12:33:00;96841.47;;;12.48;39.46
63321;BME280;49449;48.800;9.534;2024-03-29T12:35:29;96837.19;;;12.52;40.12
63321;BME280;49449;48.800;9.534;2024-03-29T12:37:58;96834.03;;;12.50;39.12
63321;BME280;49449;48.800;9.534;2024-03-29T12:40:26;96826.81;;;12.56;38.91
63321;BME280;49449;48.800;9.534;2024-03-29T12:42:55;96822.22;;;12.62;38.68
63321;BME280;49449;48.800;9.534;2024-03-29T12:45:23;96821.34;;;12.72;38.30
63321;BME280;49449;48.800;9.534;2024-03-29T12:47:50;96824.25;;;12.75;38.06
63321;BME280;49449;48.800;9.534;2024-03-29T12:50:24;96829.19;;;12.82;38.12
63321;BME280;49449;48.800;9.534;2024-03-29T12:52:56;96824.41;;;12.84;37.61
63321;BME280;49449;48.800;9.534;2024-03-29T12:55:24;96827.06;;;12.84;37.52
63321;BME280;49449;48.800;9.534;2024-03-29T12:57:54;96821.31;;;12.77;37.62
63321;BME280;49449;48.800;9.534;2024-03-29T13:00:23;96827.25;;;12.63;37.42
63321;BME280;49449;48.800;9.534;2024-03-29T13:02:50;96823.72;;;12.73;37.53
63321;BME280;49449;48.800;9.534;2024-03-29T13:05:17;96833.19;;;12.79;37.30
63321;BME280;49449;48.800;9.534;2024-03-29T13:07:44;96835.28;;;12.82;36.58
63321;BME280;49449;48.800;9.534;2024-03-29T13:10:12;96847.66;;;12.87;36.63